Time;durP1;ratioP1;P1;durP2;ratioP2;P2;SDS_P1;SDS_P2;PMS_P1;PMS_P2;Temp;Humidity;BMP_temperature;BMP_pressure;BME280_temperature;BME280_humidity;BME280_pressure;Samples;Min_cycle;Max_cycle;Signal;HPM_P1;HPM_P2
2021/11/09 00:02:17;;;;;;;10.90;9.67;;;;;;;21.24;54.79;98324.50;5003233;28;20215;-67
2021/11/09 00:04:49;;;;;;;11.60;10.27;;;;;;;21.27;54.81;98347.66;4979811;28;20214;-69
2021/11/09 00:12:32;;;;;;;12.13;10.17;;;;;;;20.94;55.01;98278.81;4983365;28;20627;-69
2021/11/09 00:14:59;;;;;;;11.30;9.47;;;;;;;21.24;54.84;98342.41;4984459;28;20296;-69
2021/11/09 00:17:27;;;;;;;11.47;10.23;;;;;;;21.12;55.22;98318.88;4998205;28;20253;-68
2021/11/09 00:19:54;;;;;;;10.93;9.83;;;;;;;20.61;54.88;98237.34;4967020;28;20203;-68
2021/11/09 00:22:22;;;;;;;11.70;10.17;;;;;;;20.41;55.17;98206.63;4997896;28;20692;-69
2021/11/09 00:24:50;;;;;;;11.00;9.80;;;;;;;21.23;55.31;98345.75;4986235;28;20626;-67
2021/11/09 00:27:16;;;;;;;11.37;10.10;;;;;;;21.14;55.15;98326.59;4995883;28;20623;-68
2021/11/09 00:29:44;;;;;;;9.97;8.93;;;;;;;21.01;55.15;98304.75;4979816;28;20871;-67
2021/11/09 00:32:10;;;;;;;10.50;9.30;;;;;;;21.07;54.75;98314.34;4978628;28;20660;-67
2021/11/09 00:34:37;;;;;;;10.57;9.33;;;;;;;21.23;55.48;98343.19;4987705;28;20362;-67
2021/11/09 00:37:04;;;;;;;12.07;9.97;;;;;;;21.12;54.99;98334.19;4995228;28;20206;-70
2021/11/09 00:39:31;;;;;;;11.97;9.67;;;;;;;21.17;55.14;98326.72;4990719;28;20258;-68
2021/11/09 00:41:58;;;;;;;10.23;9.13;;;;;;;21.21;54.91;98339.72;4990311;28;20195;-70
2021/11/09 00:44:25;;;;;;;11.30;9.90;;;;;;;21.25;55.02;98339.03;4991526;28;20272;-70
2021/11/09 00:46:52;;;;;;;10.70;9.37;;;;;;;21.07;54.87;98305.00;4977207;28;20199;-66
2021/11/09 00:49:19;;;;;;;10.00;8.97;;;;;;;21.08;55.08;98308.44;4961213;28;20635;-67
2021/11/09 00:51:47;;;;;;;10.77;9.23;;;;;;;21.17;55.01;98326.72;4981223;28;20203;-67
2021/11/09 00:54:14;;;;;;;10.30;9.20;;;;;;;21.17;55.24;98327.59;4998544;28;20203;-69
2021/11/09 00:56:41;;;;;;;9.30;8.30;;;;;;;21.17;54.88;98335.25;4980294;28;20199;-66
2021/11/09 00:59:08;;;;;;;10.00;8.60;;;;;;;21.14;55.11;98321.50;4979418;28;20218;-70
2021/11/09 01:01:35;;;;;;;9.50;8.43;;;;;;;21.11;55.20;98329.03;4980327;28;20199;-67
2021/11/09 01:04:02;;;;;;;10.23;9.10;;;;;;;21.12;55.28;98318.88;4980424;28;20202;-69
2021/11/09 01:06:28;;;;;;;9.67;8.67;;;;;;;21.23;55.18;98350.00;4963002;28;20229;-68
2021/11/09 01:08:55;;;;;;;10.10;9.10;;;;;;;21.17;55.28;98345.47;4979433;28;20199;-67
2021/11/09 01:11:22;;;;;;;10.00;8.70;;;;;;;21.05;55.11;98314.28;4962865;28;20195;-70
2021/11/09 01:13:49;;;;;;;9.83;8.57;;;;;;;21.00;55.30;98297.00;4978606;28;20697;-67
2021/11/09 01:16:17;;;;;;;9.53;8.63;;;;;;;20.55;55.59;98219.22;4970710;28;20241;-66
2021/11/09 01:18:47;;;;;;;10.43;8.57;;;;;;;21.05;55.41;98308.31;4985551;28;20235;-69
2021/11/09 01:21:15;;;;;;;9.57;8.57;;;;;;;21.10;55.33;98317.03;4983302;28;20294;-70
2021/11/09 01:23:43;;;;;;;9.17;8.10;;;;;;;21.21;55.21;98334.59;4986124;28;20229;-71
2021/11/09 01:26:10;;;;;;;9.57;8.50;;;;;;;21.17;55.43;98326.72;4974262;28;20218;-71
2021/11/09 01:28:37;;;;;;;10.33;8.70;;;;;;;21.25;55.49;98346.69;4980931;28;20207;-67
2021/11/09 01:31:06;;;;;;;9.00;7.90;;;;;;;21.17;55.48;98329.28;5007052;28;20240;-70
2021/11/09 01:33:33;;;;;;;9.97;8.73;;;;;;;21.18;55.62;98333.59;4993322;28;20206;-69
2021/11/09 01:36:00;;;;;;;10.40;8.80;;;;;;;20.92;55.50;98285.53;4975715;28;20225;-67
2021/11/09 01:38:27;;;;;;;8.73;7.83;;;;;;;21.15;55.41;98318.13;4973470;28;20289;-67
2021/11/09 01:40:54;;;;;;;8.70;7.80;;;;;;;21.17;55.54;98317.34;4979116;28;20609;-70
2021/11/09 01:43:22;;;;;;;9.13;8.23;;;;;;;21.24;55.53;98328.75;4985454;28;20199;-67
2021/11/09 01:45:48;;;;;;;9.70;8.70;;;;;;;21.23;55.50;98332.13;4977820;28;20266;-68
2021/11/09 01:48:15;;;;;;;8.70;7.80;;;;;;;21.19;55.51;98323.44;5010827;28;20261;-68
2021/11/09 01:50:45;;;;;;;8.70;7.80;;;;;;;21.18;55.55;98328.47;4991711;28;20812;-67
2021/11/09 01:53:11;;;;;;;10.10;8.30;;;;;;;21.23;55.58;98329.56;4995131;28;20204;-68
2021/11/09 01:55:38;;;;;;;9.20;8.20;;;;;;;21.23;55.68;98337.22;5020950;28;20596;-67
2021/11/09 01:58:06;;;;;;;8.77;7.97;;;;;;;21.22;55.70;98338.91;4999704;28;20565;-69
2021/11/09 02:00:37;;;;;;;8.53;7.67;;;;;;;20.83;55.50;98262.13;5004420;28;20215;-66
2021/11/09 02:03:04;;;;;;;8.23;7.27;;;;;;;21.24;55.63;98336.41;4987982;28;20288;-69
2021/11/09 02:05:30;;;;;;;8.77;7.87;;;;;;;21.20;55.40;98332.84;4994769;28;20276;-67
2021/11/09 02:08:01;;;;;;;8.57;7.67;;;;;;;21.24;55.53;98339.84;4995232;28;20198;-67
2021/11/09 02:10:30;;;;;;;8.63;7.57;;;;;;;21.05;55.55;98324.50;4980026;28;20221;-67
2021/11/09 02:12:57;;;;;;;8.90;8.00;;;;;;;21.12;55.45;98330.75;4978868;28;20199;-67
2021/11/09 02:15:25;;;;;;;8.27;7.43;;;;;;;21.25;55.60;98353.47;4980587;28;20217;-70
2021/11/09 02:17:52;;;;;;;8.30;7.40;;;;;;;21.25;55.49;98361.16;4973545;28;20257;-70
2021/11/09 02:20:20;;;;;;;8.73;7.77;;;;;;;21.15;55.50;98349.69;4991762;28;20194;-69
2021/11/09 02:22:48;;;;;;;8.37;7.47;;;;;;;21.22;55.53;98356.78;4989196;28;20202;-67
2021/11/09 02:25:17;;;;;;;8.43;7.20;;;;;;;21.20;55.48;98358.41;4979506;28;20610;-70
2021/11/09 02:27:43;;;;;;;7.57;6.67;;;;;;;21.23;55.34;98361.09;5014370;28;20201;-70
2021/11/09 02:30:12;;;;;;;7.77;7.03;;;;;;;20.92;55.58;98309.41;5012747;28;20265;-69
2021/11/09 02:32:39;;;;;;;8.03;7.20;;;;;;;21.20;55.39;98349.88;4995027;28;20233;-67
2021/11/09 02:35:06;;;;;;;8.03;7.20;;;;;;;21.01;55.61;98327.75;5024024;28;20230;-67
2021/11/09 02:37:33;;;;;;;8.17;7.37;;;;;;;21.21;55.58;98367.84;5006469;28;20207;-67
2021/11/09 02:39:59;;;;;;;7.90;7.10;;;;;;;21.14;55.40;98349.59;5012352;28;20201;-69
2021/11/09 02:42:31;;;;;;;8.47;7.50;;;;;;;21.12;55.60;98336.75;5110903;23;20655;-65
2021/11/09 02:45:10;;;;;;;7.90;7.17;;;;;;;21.23;55.40;98357.69;4996377;28;20205;-65
2021/11/09 02:47:52;;;;;;;7.77;6.70;;;;;;;20.91;55.29;98299.13;5031188;28;20201;-65
2021/11/09 02:50:21;;;;;;;7.90;7.10;;;;;;;21.14;55.60;98340.22;5007751;28;20244;-65
2021/11/09 02:52:57;;;;;;;8.50;7.17;;;;;;;21.23;55.16;98348.31;4995992;28;20218;-65
2021/11/09 02:55:31;;;;;;;7.87;7.07;;;;;;;20.87;55.08;98293.00;4990060;28;20256;-65
2021/11/09 03:00:31;;;;;;;7.93;6.77;;;;;;;21.22;55.33;98349.13;4980203;28;20260;-65
2021/11/09 03:03:08;;;;;;;8.43;7.47;;;;;;;21.05;55.35;98328.75;5010533;28;20226;-65
2021/11/09 03:06:00;;;;;;;8.07;7.27;;;;;;;21.22;55.40;98351.69;4995667;28;20201;-65
2021/11/09 03:10:54;;;;;;;7.40;6.70;;;;;;;21.24;55.37;98354.31;5017512;28;20878;-65
2021/11/09 03:13:21;;;;;;;7.67;6.90;;;;;;;21.00;55.27;98320.00;4994777;28;20214;-65
2021/11/09 03:15:49;;;;;;;8.00;7.20;;;;;;;21.23;55.07;98357.69;4999352;28;20210;-65
2021/11/09 03:18:19;;;;;;;7.90;7.10;;;;;;;21.21;55.03;98362.72;4997249;28;20286;-65
2021/11/09 03:20:57;;;;;;;7.43;6.73;;;;;;;21.14;55.19;98347.91;5017494;28;20232;-65
2021/11/09 03:45:35;;;;;;;7.13;6.43;;;;;;;21.19;55.64;98363.44;5013697;28;20198;-65
2021/11/09 03:48:07;;;;;;;7.47;6.60;;;;;;;20.90;55.62;98318.69;5006912;28;20232;-65
2021/11/09 03:50:35;;;;;;;7.47;6.77;;;;;;;20.88;55.58;98316.88;4996513;28;20258;-65
2021/11/09 03:53:16;;;;;;;7.33;6.63;;;;;;;20.25;55.83;98212.72;5017450;28;20288;-65
2021/11/09 04:00:54;;;;;;;7.53;6.80;;;;;;;21.15;55.84;98374.34;5019269;28;20617;-65
2021/11/09 04:03:37;;;;;;;7.43;6.67;;;;;;;20.83;55.54;98314.13;5004765;28;20217;-64
2021/11/09 04:06:40;;;;;;;7.00;6.30;;;;;;;21.16;55.63;98378.66;5015039;28;20234;-65
2021/11/09 04:09:05;;;;;;;7.27;6.57;;;;;;;21.08;55.17;98357.84;5015782;28;20285;-65
2021/11/09 04:17:03;;;;;;;6.97;6.27;;;;;;;21.22;55.12;98392.59;5017498;28;20234;-65
2021/11/09 04:19:55;;;;;;;7.03;5.93;;;;;;;21.01;54.94;98360.97;5019668;28;20271;-65
2021/11/09 04:23:07;;;;;;;7.20;6.03;;;;;;;21.10;55.19;98371.59;5010477;28;20230;-65
2021/11/09 04:25:28;;;;;;;7.07;6.37;;;;;;;20.63;54.86;98299.56;5014418;28;20262;-65
2021/11/09 04:28:08;;;;;;;7.03;6.33;;;;;;;21.23;54.96;98396.03;5000556;28;20221;-65
2021/11/09 04:33:29;;;;;;;6.60;6.00;;;;;;;21.16;54.61;98382.09;4997137;28;20268;-65
2021/11/09 05:10:35;;;;;;;6.83;5.63;;;;;;;21.29;54.24;98401.41;5014498;28;21027;-65
2021/11/09 05:13:02;;;;;;;6.47;5.87;;;;;;;21.30;54.22;98404.03;5013475;28;20221;-65
2021/11/09 05:15:28;;;;;;;5.80;5.30;;;;;;;21.31;54.25;98404.88;5011983;28;20234;-65
2021/11/09 05:17:55;;;;;;;6.80;6.10;;;;;;;21.16;54.18;98378.66;4994921;28;20253;-65
2021/11/09 05:20:22;;;;;;;6.70;5.53;;;;;;;21.29;54.11;98401.41;5013318;28;20226;-65
2021/11/09 05:22:49;;;;;;;6.10;5.50;;;;;;;21.31;54.40;98397.22;5013291;28;20588;-64
2021/11/09 05:25:15;;;;;;;6.40;5.57;;;;;;;21.30;53.84;98398.03;5008956;28;20226;-65
2021/11/09 05:27:42;;;;;;;5.80;5.20;;;;;;;21.30;54.40;98401.47;4997474;28;20246;-65
2021/11/09 05:30:09;;;;;;;5.73;5.23;;;;;;;21.32;54.05;98396.44;5011484;28;20818;-65
2021/11/09 05:32:35;;;;;;;6.00;5.40;;;;;;;21.32;54.34;98401.53;5013428;28;20226;-65
2021/11/09 05:35:02;;;;;;;6.77;6.07;;;;;;;21.32;54.08;98404.09;5011810;28;20289;-64
2021/11/09 05:37:35;;;;;;;5.40;4.90;;;;;;;21.33;54.29;98398.16;4996801;28;20210;-65
2021/11/09 05:40:05;;;;;;;6.00;5.37;;;;;;;21.32;54.25;98401.53;5013219;28;20206;-65
2021/11/09 05:42:31;;;;;;;5.83;5.23;;;;;;;21.32;54.01;98406.66;4980471;28;20261;-65
2021/11/09 05:44:58;;;;;;;6.87;5.30;;;;;;;21.33;54.12;98408.41;5011006;28;20241;-65
2021/11/09 05:47:25;;;;;;;8.33;5.60;;;;;;;21.33;54.39;98405.84;5010079;28;20209;-64
2021/11/09 05:49:51;;;;;;;6.20;5.47;;;;;;;20.96;53.92;98379.47;5011633;28;20233;-65
2021/11/09 05:52:18;;;;;;;5.50;5.00;;;;;;;21.26;54.28;98391.91;4995542;28;20656;-65
2021/11/09 05:54:45;;;;;;;6.00;5.40;;;;;;;21.34;54.27;98399.91;4994559;28;20414;-65
2021/11/09 05:57:12;;;;;;;7.10;5.67;;;;;;;21.33;54.04;98404.16;5013224;28;20203;-65
2021/11/09 05:59:38;;;;;;;6.30;5.70;;;;;;;21.15;53.79;98376.91;5009302;28;20284;-65
2021/11/09 06:02:05;;;;;;;5.67;5.07;;;;;;;21.03;53.97;98364.47;5011196;28;20680;-65
2021/11/09 06:04:32;;;;;;;6.07;5.13;;;;;;;20.51;53.77;98270.03;4997938;28;20210;-65
2021/11/09 06:06:58;;;;;;;6.10;5.33;;;;;;;21.12;53.62;98387.88;4995762;28;20482;-65
2021/11/09 06:09:25;;;;;;;5.70;5.10;;;;;;;21.28;53.70;98417.53;4994049;28;20202;-65
2021/11/09 06:11:51;;;;;;;5.80;5.20;;;;;;;21.21;53.83;98411.28;5010105;28;20711;-65
2021/11/09 06:14:18;;;;;;;6.00;5.40;;;;;;;21.33;53.91;98424.63;4978463;28;20293;-65
2021/11/09 06:16:44;;;;;;;5.93;5.30;;;;;;;21.31;53.65;98423.66;4993750;28;20281;-65
2021/11/09 06:19:11;;;;;;;5.40;4.90;;;;;;;21.16;54.08;98396.53;5008360;28;20279;-65
2021/11/09 06:21:38;;;;;;;5.97;5.20;;;;;;;21.30;54.36;98421.03;5010613;28;20218;-65
2021/11/09 06:24:05;;;;;;;5.60;5.10;;;;;;;21.23;54.47;98411.38;4995000;28;20664;-65
2021/11/09 06:26:31;;;;;;;6.27;4.87;;;;;;;21.23;54.06;98407.09;4990109;28;20229;-65
2021/11/09 06:29:01;;;;;;;5.20;4.77;;;;;;;20.36;53.86;98264.25;5008030;28;20206;-65
2021/11/09 06:31:28;;;;;;;5.53;4.80;;;;;;;21.22;53.12;98420.69;5012067;28;20320;-65
2021/11/09 06:33:55;;;;;;;5.30;4.80;;;;;;;21.31;53.15;98438.13;5010319;28;20663;-65
2021/11/09 06:36:22;;;;;;;5.63;5.03;;;;;;;21.14;52.95;98404.13;5011143;28;20233;-65
2021/11/09 06:38:48;;;;;;;6.53;5.43;;;;;;;21.31;52.78;98438.13;5004644;28;20684;-64
2021/11/09 06:41:15;;;;;;;7.30;5.80;;;;;;;21.30;52.95;98447.50;4984194;28;20194;-65
2021/11/09 06:43:41;;;;;;;9.30;6.20;;;;;;;21.14;49.92;98426.28;5008925;28;20202;-64
2021/11/09 06:46:08;;;;;;;10.17;5.67;;;;;;;20.86;49.60;98383.25;4979770;28;20237;-65
2021/11/09 06:48:35;;;;;;;8.67;5.37;;;;;;;21.28;49.98;98461.88;5011233;28;20198;-64
2021/11/09 06:51:03;;;;;;;7.43;5.37;;;;;;;21.28;50.29;98464.44;5011099;28;20305;-65
2021/11/09 06:53:29;;;;;;;6.47;5.20;;;;;;;20.99;51.02;98412.81;5009092;28;20246;-64
2021/11/09 06:55:56;;;;;;;6.43;5.37;;;;;;;21.11;51.15;98439.78;4978036;28;20229;-65
2021/11/09 06:58:23;;;;;;;7.67;5.57;;;;;;;21.02;50.49;98428.28;4978884;28;20249;-65
2021/11/09 07:00:49;;;;;;;9.13;5.53;;;;;;;21.21;50.72;98466.66;4991936;28;20222;-65
2021/11/09 07:03:16;;;;;;;6.67;5.70;;;;;;;21.19;51.43;98464.03;4982827;28;20218;-65
2021/11/09 07:05:43;;;;;;;10.43;6.23;;;;;;;21.20;52.00;98460.66;4983003;28;20226;-65
2021/11/09 07:08:10;;;;;;;6.57;5.23;;;;;;;21.28;51.96;98489.13;4978356;28;20230;-65
2021/11/09 07:10:36;;;;;;;9.13;5.23;;;;;;;21.15;52.22;98469.81;4994352;28;20230;-65
2021/11/09 07:13:03;;;;;;;6.80;5.70;;;;;;;21.13;52.42;98465.41;5007079;28;20309;-65
2021/11/09 07:15:30;;;;;;;5.60;5.07;;;;;;;21.15;52.51;98469.81;4988584;28;20210;-65
2021/11/09 07:17:56;;;;;;;6.20;5.33;;;;;;;21.28;52.63;98487.44;4993886;28;20286;-65
2021/11/09 07:20:23;;;;;;;6.57;5.37;;;;;;;21.28;52.66;98487.44;5006722;28;20202;-65
2021/11/09 07:22:50;;;;;;;5.70;5.03;;;;;;;21.29;52.90;98490.91;4993007;28;20222;-65
2021/11/09 07:25:17;;;;;;;6.00;5.27;;;;;;;21.25;52.79;98478.75;5008846;28;20266;-65
2021/11/09 07:27:43;;;;;;;5.90;4.93;;;;;;;21.28;53.02;98494.25;4994094;28;20206;-65
2021/11/09 07:30:11;;;;;;;5.53;5.03;;;;;;;21.27;52.88;98493.38;5009074;28;20610;-65
2021/11/09 07:32:38;;;;;;;5.43;4.60;;;;;;;21.26;53.28;98498.44;5010867;28;20687;-65
2021/11/09 07:35:05;;;;;;;5.47;4.87;;;;;;;21.26;53.17;98499.28;4996201;28;20198;-65
2021/11/09 07:37:32;;;;;;;6.03;4.93;;;;;;;21.23;53.35;98499.13;4991583;28;20198;-65
2021/11/09 07:39:59;;;;;;;6.73;4.80;;;;;;;21.24;53.43;98506.03;4987389;28;20628;-65
2021/11/09 07:42:25;;;;;;;5.70;4.87;;;;;;;21.24;53.36;98500.91;5010774;28;20762;-64
2021/11/09 07:44:53;;;;;;;7.73;5.23;;;;;;;21.25;53.30;98506.88;5010995;28;20547;-65
2021/11/09 07:47:21;;;;;;;8.13;5.00;;;;;;;21.19;53.07;98493.81;5009410;28;20761;-65
2021/11/09 07:49:48;;;;;;;5.33;4.77;;;;;;;21.27;53.65;98507.84;5008772;28;20252;-65
2021/11/09 07:52:15;;;;;;;6.20;5.17;;;;;;;21.27;53.45;98507.84;5010969;28;20254;-65
2021/11/09 07:54:46;;;;;;;6.20;5.03;;;;;;;21.25;53.03;98502.66;5009393;28;20293;-65
2021/11/09 07:57:15;;;;;;;5.80;4.93;;;;;;;20.96;52.75;98453.56;4992511;28;20225;-65
2021/11/09 08:04:56;;;;;;;5.43;4.93;;;;;;;21.19;52.81;98475.94;4996018;28;20229;-65
2021/11/09 08:07:31;;;;;;;5.30;4.80;;;;;;;21.19;52.83;98479.38;4988059;28;20240;-65
2021/11/09 08:09:58;;;;;;;9.17;5.40;;;;;;;21.23;52.62;98486.34;5010470;28;20288;-65
2021/11/09 08:12:24;;;;;;;7.43;4.70;;;;;;;21.25;52.57;98494.97;4993134;28;20239;-66
2021/11/09 08:14:51;;;;;;;6.33;5.10;;;;;;;21.17;52.38;98483.53;4993972;28;20683;-65
2021/11/09 08:17:18;;;;;;;6.80;5.27;;;;;;;21.22;52.42;98489.72;5013925;28;20238;-64
2021/11/09 08:19:44;;;;;;;5.20;4.70;;;;;;;21.02;52.20;98452.16;5012840;28;20592;-65
2021/11/09 08:22:11;;;;;;;6.80;4.83;;;;;;;21.17;52.60;98486.06;5001010;28;20238;-65
2021/11/09 08:24:38;;;;;;;4.90;4.40;;;;;;;21.24;52.92;98498.34;5011349;28;20229;-65
2021/11/09 08:27:06;;;;;;;5.83;4.80;;;;;;;21.24;52.66;98506.03;5009324;28;20281;-65
2021/11/09 08:29:33;;;;;;;7.30;4.80;;;;;;;21.25;52.96;98509.44;4981783;28;20226;-65
2021/11/09 08:32:01;;;;;;;5.20;4.70;;;;;;;21.23;53.19;98498.28;4995357;28;20225;-65
2021/11/09 08:34:29;;;;;;;5.43;4.93;;;;;;;21.23;53.31;98506.81;4996283;28;20860;-65
2021/11/09 08:36:56;;;;;;;6.10;4.60;;;;;;;21.04;53.27;98475.22;4996669;28;20202;-65
2021/11/09 08:39:28;;;;;;;5.10;4.60;;;;;;;21.23;53.45;98504.25;4999572;28;20222;-65
2021/11/09 08:42:11;;;;;;;5.20;4.70;;;;;;;21.24;52.84;98508.59;5014028;22;20286;-66
2021/11/09 08:44:52;;;;;;;7.23;5.07;;;;;;;21.15;52.45;98489.38;5015179;28;20713;-69
2021/11/09 08:47:24;;;;;;;5.23;4.73;;;;;;;21.11;51.64;98485.78;5001583;28;20289;-70
2021/11/09 08:49:51;;;;;;;6.07;4.70;;;;;;;21.23;52.16;98506.81;4999682;28;20698;-67
2021/11/09 08:52:20;;;;;;;8.83;5.07;;;;;;;21.23;52.20;98506.81;5010973;28;20302;-68
2021/11/09 08:54:57;;;;;;;5.23;4.30;;;;;;;21.23;52.52;98506.81;4984460;28;20369;-70
2021/11/09 09:05:40;;;;;;;5.00;4.40;;;;;;;21.24;52.95;98515.38;4995680;28;20198;-71
2021/11/09 09:08:07;;;;;;;5.73;4.67;;;;;;;21.23;53.02;98511.94;4993014;28;20233;-68
2021/11/09 09:10:33;;;;;;;5.60;4.47;;;;;;;21.16;52.59;98504.78;5006095;28;20563;-67
2021/11/09 09:13:00;;;;;;;4.87;4.20;;;;;;;21.23;52.94;98514.47;4984125;28;20260;-67
2021/11/09 09:15:26;;;;;;;4.37;3.97;;;;;;;21.22;52.83;98520.41;5000742;28;20203;-69
2021/11/09 09:17:53;;;;;;;4.93;4.30;;;;;;;21.14;53.30;98498.72;4979770;28;20587;-67
2021/11/09 09:20:31;;;;;;;4.87;4.20;;;;;;;21.12;52.87;98496.91;4975223;28;20195;-67
2021/11/09 09:23:02;;;;;;;6.33;5.00;;;;;;;21.06;53.28;98492.41;4987927;28;20211;-67
2021/11/09 09:25:47;;;;;;;5.13;4.43;;;;;;;20.99;53.45;98477.56;4982866;28;20272;-69
2021/11/09 09:57:26;;;;;;;4.67;4.10;;;;;;;21.21;53.17;98536.56;5009573;28;20206;-67
2021/11/09 09:59:53;;;;;;;4.97;3.90;;;;;;;20.89;53.01;98469.38;5008205;28;20202;-67
2021/11/09 10:02:24;;;;;;;4.90;4.30;;;;;;;21.13;53.13;98516.53;4983515;28;20731;-71
2021/11/09 10:04:57;;;;;;;5.53;4.33;;;;;;;21.19;51.36;98522.81;5018585;28;20205;-67
2021/11/09 10:07:33;;;;;;;5.53;4.37;;;;;;;21.10;50.75;98504.50;4978352;28;20206;-69
2021/11/09 10:10:02;;;;;;;5.40;4.30;;;;;;;21.17;51.04;98519.31;4978679;28;20200;-72
2021/11/09 10:12:34;;;;;;;6.13;4.00;;;;;;;21.15;51.36;98518.38;4992810;28;20257;-67
2021/11/09 10:15:10;;;;;;;6.67;4.10;;;;;;;21.16;51.59;98512.47;4994731;28;20217;-69
2021/11/09 10:17:43;;;;;;;4.87;3.83;;;;;;;21.18;51.89;98520.19;5006820;28;20202;-67
2021/11/09 10:20:17;;;;;;;4.50;4.07;;;;;;;20.83;52.00;98457.19;5011782;28;20225;-67
2021/11/09 10:22:46;;;;;;;5.37;3.73;;;;;;;21.00;52.06;98486.13;4986675;28;20237;-67
2021/11/09 10:25:14;;;;;;;5.60;4.03;;;;;;;20.91;52.15;98475.44;4995975;28;20202;-70
2021/11/09 10:27:42;;;;;;;4.27;3.60;;;;;;;21.17;52.07;98519.31;4976635;28;20203;-70
2021/11/09 10:30:23;;;;;;;6.80;4.17;;;;;;;21.07;52.12;98499.25;4989514;28;20198;-67
2021/11/09 10:32:50;;;;;;;4.03;3.60;;;;;;;21.10;51.96;98504.50;4993333;28;20592;-67
2021/11/09 10:35:17;;;;;;;5.40;4.07;;;;;;;21.10;52.13;98499.41;4992870;28;20229;-67
2021/11/09 10:37:51;;;;;;;4.73;3.70;;;;;;;21.11;52.05;98495.16;4991202;28;20262;-72
2021/11/09 10:40:26;;;;;;;5.50;3.67;;;;;;;20.11;52.13;98325.16;4988146;28;20670;-69
2021/11/09 10:42:58;;;;;;;5.03;3.80;;;;;;;20.90;51.75;98451.56;4964482;28;20250;-67
2021/11/09 10:45:27;;;;;;;4.30;3.73;;;;;;;21.13;52.13;98488.44;4980776;28;20202;-68
2021/11/09 10:47:58;;;;;;;3.93;3.40;;;;;;;21.19;52.19;98499.81;4966379;28;20198;-67
2021/11/09 10:50:27;;;;;;;4.10;3.70;;;;;;;21.18;52.51;98495.53;4990840;28;20244;-68
2021/11/09 10:53:05;;;;;;;5.87;3.80;;;;;;;21.17;52.34;98498.00;4976404;28;20254;-67
2021/11/09 10:55:36;;;;;;;3.90;3.50;;;;;;;21.10;52.40;98483.16;4997631;28;20256;-68
2021/11/09 11:03:28;;;;;;;4.30;3.83;;;;;;;21.17;52.60;98488.63;5006583;28;20314;-67
2021/11/09 11:06:34;;;;;;;3.77;3.30;;;;;;;21.16;52.48;98492.00;4991024;28;20202;-67
2021/11/09 11:09:08;;;;;;;6.00;3.67;;;;;;;21.17;52.57;98485.22;4980341;28;20244;-67
2021/11/09 11:11:59;;;;;;;3.13;2.83;;;;;;;21.10;52.13;98471.28;5006257;28;20532;-68
2021/11/09 11:14:27;;;;;;;3.53;3.20;;;;;;;21.10;52.30;98466.16;4973405;28;20214;-66
2021/11/09 11:17:02;;;;;;;3.60;3.30;;;;;;;21.13;52.43;98468.88;4991688;28;20217;-67
2021/11/09 11:19:29;;;;;;;3.83;3.20;;;;;;;21.09;51.88;98461.88;4991959;28;20342;-67
2021/11/09 11:21:57;;;;;;;3.80;3.20;;;;;;;21.18;52.06;98476.75;4990063;28;20290;-66
2021/11/09 11:24:23;;;;;;;3.90;3.17;;;;;;;21.17;52.20;98470.75;5008442;28;20236;-65
2021/11/09 11:26:50;;;;;;;4.17;3.07;;;;;;;21.17;52.08;98472.44;5004792;28;20214;-71
2021/11/09 11:29:20;;;;;;;3.37;2.97;;;;;;;21.04;52.44;98445.44;4987407;28;20202;-67
2021/11/09 11:31:47;;;;;;;5.03;3.63;;;;;;;20.83;52.36;98412.88;4973879;28;20729;-72
2021/11/09 11:34:17;;;;;;;3.40;3.10;;;;;;;21.08;52.48;98456.69;4991757;28;20285;-65
2021/11/09 11:36:45;;;;;;;4.00;3.60;;;;;;;21.01;52.73;98441.84;4992386;28;20272;-67
2021/11/09 11:39:12;;;;;;;5.17;3.00;;;;;;;21.17;52.66;98463.06;4986099;28;20286;-69
2021/11/09 11:41:40;;;;;;;4.33;3.50;;;;;;;20.90;52.77;98402.16;4980246;28;20289;-68
2021/11/09 11:44:07;;;;;;;3.57;3.20;;;;;;;21.13;53.07;98452.63;4995536;28;20324;-70
2021/11/09 11:46:37;;;;;;;3.97;3.20;;;;;;;21.17;52.74;98457.97;4995370;28;20289;-68
2021/11/09 11:49:14;;;;;;;3.87;3.07;;;;;;;21.05;52.85;98436.09;5015448;28;20796;-67
2021/11/09 11:51:44;;;;;;;3.97;3.30;;;;;;;21.19;52.62;98458.03;4979164;28;20241;-67
2021/11/09 11:54:11;;;;;;;3.70;2.97;;;;;;;21.12;52.62;98438.13;5014579;28;20206;-68
2021/11/09 11:56:38;;;;;;;3.33;2.77;;;;;;;21.19;52.25;98448.69;4980293;28;20206;-68
2021/11/09 11:59:23;;;;;;;3.17;2.87;;;;;;;21.20;52.44;98449.56;5009774;28;20265;-70
2021/11/09 12:01:54;;;;;;;3.33;3.03;;;;;;;21.11;52.71;98431.28;5013580;28;20238;-67
2021/11/09 12:04:36;;;;;;;4.30;3.40;;;;;;;21.18;52.80;98444.41;4998556;28;20259;-67
2021/11/09 12:07:04;;;;;;;3.80;2.90;;;;;;;21.17;52.86;98442.63;5014208;28;20226;-67
2021/11/09 12:09:32;;;;;;;3.00;2.70;;;;;;;21.17;52.92;98436.66;4992327;28;20210;-67
2021/11/09 12:12:19;;;;;;;4.73;3.30;;;;;;;21.18;53.07;98423.94;5014022;28;20203;-66
2021/11/09 12:14:47;;;;;;;3.57;3.07;;;;;;;21.18;53.00;98428.16;4993917;28;20201;-67
2021/11/09 12:17:30;;;;;;;3.00;2.70;;;;;;;21.17;52.60;98429.84;5008854;28;20619;-70
2021/11/09 12:19:57;;;;;;;3.87;2.90;;;;;;;21.14;52.34;98406.69;4993844;28;20206;-68
2021/11/09 12:22:26;;;;;;;3.50;2.63;;;;;;;21.13;52.33;98409.19;4984314;28;20218;-64
2021/11/09 12:25:00;;;;;;;2.97;2.70;;;;;;;20.84;52.37;98359.28;4979047;28;20195;-67
2021/11/09 12:27:49;;;;;;;3.10;2.80;;;;;;;21.19;52.47;98418.00;5002324;28;20224;-67
2021/11/09 12:30:37;;;;;;;2.87;2.67;;;;;;;21.19;52.55;98422.25;5004724;28;20282;-67
2021/11/09 12:33:28;;;;;;;3.10;2.80;;;;;;;21.19;52.42;98418.00;5006595;28;20766;-66
2021/11/09 12:36:11;;;;;;;3.20;2.90;;;;;;;21.18;52.82;98416.28;4989926;28;20206;-66
2021/11/09 12:38:49;;;;;;;3.20;2.90;;;;;;;21.18;52.67;98413.72;5008834;28;20202;-67
2021/11/09 12:41:24;;;;;;;2.90;2.70;;;;;;;21.18;52.83;98420.50;5006760;28;20206;-67
2021/11/09 12:43:52;;;;;;;4.07;3.00;;;;;;;21.10;53.00;98401.38;4990726;28;20281;-66
2021/11/09 12:48:56;;;;;;;3.13;2.63;;;;;;;21.17;52.84;98411.94;4988823;28;20309;-67
2021/11/09 12:51:34;;;;;;;3.27;2.70;;;;;;;20.19;52.63;98245.63;5016563;28;20205;-67
2021/11/09 12:54:06;;;;;;;3.17;2.73;;;;;;;21.05;52.95;98398.63;4975814;28;20756;-70
2021/11/09 12:56:46;;;;;;;3.43;2.47;;;;;;;21.18;52.85;98408.59;4989220;28;20203;-68
2021/11/09 12:59:28;;;;;;;3.40;2.70;;;;;;;21.09;52.82;98408.19;4966288;28;20285;-71
2021/11/09 13:09:59;;;;;;;3.47;2.80;;;;;;;21.17;52.93;98416.22;4971117;28;20217;-67
2021/11/09 13:12:29;;;;;;;2.63;2.43;;;;;;;21.16;53.13;98417.88;5007061;28;20269;-67
2021/11/09 13:15:01;;;;;;;3.33;2.60;;;;;;;20.98;53.08;98393.16;4974106;28;20214;-72
2021/11/09 13:17:39;;;;;;;2.70;2.47;;;;;;;20.98;53.28;98388.94;4966140;28;20668;-67
2021/11/09 13:20:17;;;;;;;2.87;2.53;;;;;;;21.16;53.46;98427.22;4981915;28;20205;-70
2021/11/09 13:23:00;;;;;;;3.87;2.90;;;;;;;21.14;53.30;98424.59;4989396;28;20313;-68
2021/11/09 13:25:58;;;;;;;2.73;2.50;;;;;;;21.15;53.00;98428.91;5017783;28;20693;-67
2021/11/09 13:28:34;;;;;;;4.27;2.80;;;;;;;21.17;53.07;98431.53;5003768;28;20199;-68
2021/11/09 13:31:07;;;;;;;3.60;3.10;;;;;;;21.17;52.90;98428.97;4981234;28;20198;-70
2021/11/09 13:33:42;;;;;;;3.03;2.73;;;;;;;21.16;52.77;98425.53;4971729;28;20313;-68
2021/11/09 13:36:09;;;;;;;3.57;2.63;;;;;;;21.02;52.81;98390.81;4983796;28;20197;-68
2021/11/09 13:38:38;;;;;;;3.57;2.83;;;;;;;20.91;52.87;98373.22;4994184;28;20563;-67
2021/11/09 13:41:18;;;;;;;3.47;2.90;;;;;;;21.15;52.93;98411.03;5001030;28;20663;-71
2021/11/09 13:43:51;;;;;;;2.90;2.60;;;;;;;20.91;52.75;98355.34;5011287;28;20225;-67
2021/11/09 13:46:19;;;;;;;3.10;2.80;;;;;;;20.74;52.91;98323.94;4979733;28;20238;-69
2021/11/09 13:48:51;;;;;;;3.03;2.73;;;;;;;20.95;53.11;98358.13;5025984;28;20222;-66
2021/11/09 13:51:26;;;;;;;3.30;2.90;;;;;;;21.02;53.05;98365.25;4995268;28;20207;-68
2021/11/09 13:54:04;;;;;;;4.23;2.70;;;;;;;20.88;52.88;98340.75;4991769;28;20225;-66
2021/11/09 13:56:30;;;;;;;4.07;2.70;;;;;;;20.65;53.02;98295.41;4989977;28;20206;-66
2021/11/09 13:59:10;;;;;;;3.03;2.73;;;;;;;20.69;53.04;98304.97;5007036;28;20257;-66
2021/11/09 14:02:00;;;;;;;3.57;2.83;;;;;;;21.15;53.03;98385.47;4988987;28;20230;-66
2021/11/09 14:17:45;;;;;;;4.90;2.60;;;;;;;21.14;52.30;98390.50;5016662;28;20209;-68
2021/11/09 14:20:16;;;;;;;3.20;2.87;;;;;;;21.13;52.38;98393.84;4995116;28;20203;-68